Time;durP1;ratioP1;P1;durP2;ratioP2;P2;SDS_P1;SDS_P2;PMS_P1;PMS_P2;Temp;Humidity;BMP_temperature;BMP_pressure;BME280_temperature;BME280_humidity;BME280_pressure;Samples;Min_cycle;Max_cycle;Signal;HPM_P1;HPM_P2
2022/07/25 00:02:25;;;;;;;3.80;1.50;;;22.40;99.90;;;;;;5015792;28;20057;-69
2022/07/25 00:04:51;;;;;;;2.88;1.60;;;22.50;99.90;;;;;;5015755;28;20462;-69
2022/07/25 00:07:17;;;;;;;4.82;1.85;;;22.40;99.90;;;;;;5015471;28;20458;-69
2022/07/25 00:09:43;;;;;;;3.08;1.65;;;22.40;99.90;;;;;;5016061;28;20060;-70
2022/07/25 00:12:09;;;;;;;3.47;1.50;;;22.40;99.90;;;;;;5015864;28;20360;-69
2022/07/25 00:14:34;;;;;;;3.63;1.58;;;22.30;99.90;;;;;;5015827;28;20130;-69
2022/07/25 00:17:00;;;;;;;3.85;1.83;;;22.40;99.90;;;;;;5015576;28;20053;-69
2022/07/25 00:19:26;;;;;;;3.05;1.50;;;22.40;99.90;;;;;;5015365;28;20077;-70
2022/07/25 00:21:51;;;;;;;2.85;1.52;;;22.40;99.90;;;;;;5015538;28;20080;-69
2022/07/25 00:24:17;;;;;;;2.42;1.60;;;22.40;99.90;;;;;;5016038;28;20038;-70
2022/07/25 00:26:42;;;;;;;4.70;2.20;;;22.40;99.90;;;;;;5015132;28;20056;-69
2022/07/25 00:29:08;;;;;;;5.65;2.33;;;22.40;99.90;;;;;;5015081;28;20185;-69
2022/07/25 00:31:34;;;;;;;7.22;2.40;;;22.40;99.90;;;;;;5015164;28;20061;-69
2022/07/25 00:34:00;;;;;;;5.90;2.60;;;22.40;99.90;;;;;;5015135;28;20041;-69
2022/07/25 00:36:25;;;;;;;4.70;2.22;;;22.40;99.90;;;;;;5015886;28;20092;-69
2022/07/25 00:38:51;;;;;;;5.57;2.40;;;22.40;99.90;;;;;;5015088;28;20133;-70
2022/07/25 00:41:17;;;;;;;3.70;2.13;;;22.40;99.90;;;;;;5015777;28;20057;-69
2022/07/25 00:43:43;;;;;;;4.18;2.53;;;22.40;99.90;;;;;;5015172;28;20548;-69
2022/07/25 00:46:15;;;;;;;4.43;2.33;;;22.30;99.90;;;;;;5015212;28;20038;-70
2022/07/25 00:48:42;;;;;;;3.45;2.00;;;22.30;99.90;;;;;;5015688;28;20057;-70
2022/07/25 00:51:09;;;;;;;5.80;2.65;;;22.30;99.90;;;;;;5015127;28;20138;-69
2022/07/25 00:53:35;;;;;;;4.32;2.58;;;22.30;99.90;;;;;;5015163;28;20065;-69
2022/07/25 00:56:02;;;;;;;5.18;2.65;;;22.20;99.90;;;;;;5015343;28;20112;-70
2022/07/25 00:58:28;;;;;;;4.10;2.28;;;22.20;99.90;;;;;;5015579;28;20045;-69
2022/07/25 01:00:53;;;;;;;3.72;2.40;;;22.10;99.90;;;;;;5014971;28;20056;-69
2022/07/25 01:03:19;;;;;;;7.05;3.17;;;22.10;99.90;;;;;;5015103;28;20083;-69
2022/07/25 01:05:44;;;;;;;3.97;2.55;;;21.90;99.90;;;;;;5015347;28;20417;-69
2022/07/25 01:08:11;;;;;;;7.20;2.63;;;21.90;99.90;;;;;;5015088;28;20557;-69
2022/07/25 01:10:37;;;;;;;4.22;2.60;;;21.80;99.90;;;;;;5014971;28;20133;-70
2022/07/25 01:13:03;;;;;;;4.15;2.80;;;21.80;99.90;;;;;;5014952;28;20284;-69
2022/07/25 01:15:29;;;;;;;5.88;2.92;;;21.70;99.90;;;;;;5014872;28;20530;-69
2022/07/25 01:17:54;;;;;;;5.35;3.00;;;21.70;99.90;;;;;;5015288;28;20050;-70
2022/07/25 01:20:25;;;;;;;5.80;3.10;;;21.70;99.90;;;;;;5014851;28;20136;-69
2022/07/25 01:22:51;;;;;;;5.65;3.05;;;21.70;99.90;;;;;;4981929;28;20042;-69
2022/07/25 01:25:18;;;;;;;6.50;3.35;;;21.60;99.90;;;;;;5014770;28;20052;-69
2022/07/25 01:27:45;;;;;;;4.95;3.15;;;21.50;99.90;;;;;;5014830;28;20104;-69
2022/07/25 01:30:13;;;;;;;5.53;3.00;;;21.50;99.90;;;;;;5014608;28;20050;-70
2022/07/25 01:32:40;;;;;;;4.93;3.03;;;21.50;99.90;;;;;;5014374;28;20501;-69
2022/07/25 01:35:07;;;;;;;6.88;3.20;;;21.50;99.90;;;;;;5015264;28;20068;-69
2022/07/25 01:37:33;;;;;;;4.30;3.25;;;21.40;99.90;;;;;;5015235;28;20190;-69
2022/07/25 01:39:59;;;;;;;5.60;3.58;;;21.30;99.90;;;;;;5016623;28;20069;-69
2022/07/25 01:42:25;;;;;;;6.82;4.15;;;21.20;99.90;;;;;;5001294;28;20046;-69
2022/07/25 01:44:50;;;;;;;5.50;3.40;;;21.20;99.90;;;;;;5018276;28;20046;-69
2022/07/25 01:47:16;;;;;;;6.05;3.92;;;21.20;99.90;;;;;;5018381;28;20184;-69
2022/07/25 01:49:43;;;;;;;7.75;3.60;;;21.20;99.90;;;;;;5018885;28;20053;-69
2022/07/25 01:52:09;;;;;;;7.15;4.20;;;21.20;99.90;;;;;;5018192;28;20041;-68
2022/07/25 01:54:34;;;;;;;5.22;3.50;;;21.20;99.90;;;;;;5018230;28;20049;-69
2022/07/25 01:57:00;;;;;;;7.55;3.45;;;21.20;99.90;;;;;;5018121;28;20053;-69
2022/07/25 01:59:26;;;;;;;5.75;3.85;;;21.20;99.90;;;;;;5001046;28;20053;-69
2022/07/25 02:01:52;;;;;;;7.68;4.20;;;21.20;99.90;;;;;;5017897;28;20056;-68
2022/07/25 02:04:17;;;;;;;5.28;3.45;;;21.20;99.90;;;;;;5018446;28;20046;-69
2022/07/25 02:06:43;;;;;;;5.15;3.47;;;21.20;99.90;;;;;;5018537;28;20046;-69
2022/07/25 02:09:09;;;;;;;8.82;4.15;;;21.20;99.90;;;;;;5000632;28;20111;-69
2022/07/25 02:11:35;;;;;;;6.57;4.10;;;21.10;99.90;;;;;;5017852;28;20046;-69
2022/07/25 02:14:01;;;;;;;6.40;4.03;;;21.10;99.90;;;;;;5017801;28;20042;-69
2022/07/25 02:16:26;;;;;;;4.90;3.60;;;21.10;99.90;;;;;;5017616;28;20053;-70
2022/07/25 02:18:53;;;;;;;7.05;4.15;;;21.00;99.90;;;;;;5001137;28;20064;-69
2022/07/25 02:21:18;;;;;;;8.40;4.13;;;21.00;99.90;;;;;;5000869;28;20401;-69
2022/07/25 02:23:44;;;;;;;5.88;3.85;;;21.00;99.90;;;;;;5017683;28;20107;-69
2022/07/25 02:26:11;;;;;;;5.75;3.80;;;20.90;99.90;;;;;;5017726;28;20104;-69
2022/07/25 02:28:37;;;;;;;6.45;3.85;;;21.00;99.90;;;;;;5003605;28;20113;-69
2022/07/25 02:31:03;;;;;;;7.75;3.58;;;21.00;99.90;;;;;;5017488;28;20038;-69
2022/07/25 02:33:28;;;;;;;9.52;4.85;;;20.90;99.90;;;;;;5017490;28;20410;-69
2022/07/25 02:35:54;;;;;;;6.47;4.00;;;20.90;99.90;;;;;;5017563;28;20050;-69
2022/07/25 02:38:20;;;;;;;7.15;4.22;;;20.90;99.90;;;;;;5017480;28;20050;-69
2022/07/25 02:40:50;;;;;;;8.40;4.53;;;20.90;99.90;;;;;;5017352;28;20042;-69
2022/07/25 02:43:17;;;;;;;10.93;4.05;;;20.90;99.90;;;;;;5017193;28;20038;-69
2022/07/25 02:45:42;;;;;;;6.30;3.83;;;20.80;99.90;;;;;;5017676;28;20057;-69
2022/07/25 02:48:08;;;;;;;6.97;4.22;;;20.80;99.90;;;;;;5017308;28;20050;-69
2022/07/25 02:50:34;;;;;;;6.75;4.22;;;20.90;99.90;;;;;;5017060;28;20367;-69
2022/07/25 02:53:00;;;;;;;5.38;3.75;;;20.80;99.90;;;;;;5017136;28;20092;-69
2022/07/25 02:55:26;;;;;;;6.00;4.20;;;20.80;99.90;;;;;;5016872;28;20435;-69
2022/07/25 02:57:51;;;;;;;7.97;4.03;;;20.80;99.90;;;;;;5016370;28;20074;-69
2022/07/25 03:00:17;;;;;;;5.75;3.85;;;20.80;99.90;;;;;;5017799;28;20052;-69
2022/07/25 03:02:43;;;;;;;7.43;4.57;;;20.80;99.90;;;;;;5017328;28;20049;-69
2022/07/25 03:05:11;;;;;;;5.85;3.75;;;20.80;99.90;;;;;;5017341;28;20433;-69
2022/07/25 03:07:37;;;;;;;7.07;4.40;;;20.80;99.90;;;;;;5016717;28;20077;-69
2022/07/25 03:10:04;;;;;;;6.40;4.20;;;20.80;99.90;;;;;;5017374;28;20042;-69
2022/07/25 03:12:31;;;;;;;7.93;4.82;;;20.80;99.90;;;;;;5017229;28;20037;-69
2022/07/25 03:14:57;;;;;;;9.50;4.68;;;20.80;99.90;;;;;;5016728;28;20068;-69
2022/07/25 03:17:23;;;;;;;10.05;4.70;;;20.80;99.90;;;;;;5017085;28;20050;-69
2022/07/25 03:19:48;;;;;;;5.97;4.20;;;20.80;99.90;;;;;;5016742;28;20042;-69
2022/07/25 03:22:14;;;;;;;5.93;3.92;;;20.70;99.90;;;;;;5016761;28;20157;-69
2022/07/25 03:24:39;;;;;;;9.15;5.03;;;20.70;99.90;;;;;;5016577;28;20390;-69
2022/07/25 03:27:05;;;;;;;6.30;4.38;;;20.70;99.90;;;;;;5016462;28;20046;-69
2022/07/25 03:29:31;;;;;;;7.93;4.07;;;20.60;99.90;;;;;;5016762;28;20115;-69
2022/07/25 03:31:58;;;;;;;9.13;5.10;;;20.60;99.90;;;;;;5016487;28;20046;-70
2022/07/25 03:34:24;;;;;;;10.32;4.95;;;20.60;99.90;;;;;;5016373;28;20050;-69
2022/07/25 03:36:49;;;;;;;10.00;4.43;;;20.50;99.90;;;;;;5016293;28;20137;-69
2022/07/25 03:39:15;;;;;;;7.72;4.20;;;20.50;99.90;;;;;;5016679;28;20049;-69
2022/07/25 03:41:41;;;;;;;6.05;4.40;;;20.50;99.90;;;;;;5016125;28;20049;-69
2022/07/25 03:44:07;;;;;;;8.13;4.60;;;20.40;99.90;;;;;;5016048;28;20402;-69
2022/07/25 03:46:32;;;;;;;6.78;4.43;;;20.40;99.90;;;;;;5016084;28;20042;-69
2022/07/25 03:48:58;;;;;;;9.02;4.50;;;20.40;99.90;;;;;;5016021;28;20497;-69
2022/07/25 03:51:24;;;;;;;7.93;4.97;;;20.40;99.90;;;;;;5016026;28;20107;-69
2022/07/25 03:54:01;;;;;;;6.80;4.55;;;20.40;99.90;;;;;;4998769;28;20451;-70
2022/07/25 03:56:30;;;;;;;8.68;4.45;;;20.40;99.90;;;;;;5016039;28;20038;-69
2022/07/25 03:58:56;;;;;;;7.28;4.35;;;20.50;99.90;;;;;;5016077;28;20128;-69
2022/07/25 04:01:22;;;;;;;10.00;5.15;;;20.40;99.90;;;;;;5015396;28;20117;-69
2022/07/25 04:03:48;;;;;;;8.55;5.13;;;20.40;99.90;;;;;;5016000;28;20054;-69
2022/07/25 04:06:13;;;;;;;9.52;4.45;;;20.40;99.90;;;;;;5015668;28;20045;-69
2022/07/25 04:08:39;;;;;;;8.63;4.90;;;20.40;99.90;;;;;;5016053;28;20050;-69
2022/07/25 04:11:04;;;;;;;9.55;4.90;;;20.40;99.90;;;;;;5015634;28;20455;-69
2022/07/25 04:13:30;;;;;;;9.95;4.97;;;20.40;99.90;;;;;;5015586;28;20128;-69
2022/07/25 04:15:55;;;;;;;9.35;5.15;;;20.40;99.90;;;;;;4998663;28;20366;-69
2022/07/25 04:18:21;;;;;;;8.20;5.15;;;20.40;99.90;;;;;;5015721;28;20481;-69
2022/07/25 04:20:47;;;;;;;9.57;5.38;;;20.40;99.90;;;;;;5015229;28;20371;-69
2022/07/25 04:23:12;;;;;;;6.90;5.20;;;20.30;99.90;;;;;;5015329;28;20046;-69
2022/07/25 04:25:38;;;;;;;7.00;4.57;;;20.30;99.90;;;;;;5015882;28;20513;-69
2022/07/25 04:28:04;;;;;;;6.93;4.68;;;20.40;99.90;;;;;;4998610;28;20053;-69
2022/07/25 04:30:29;;;;;;;7.53;5.07;;;20.40;99.90;;;;;;4998494;28;20049;-69
2022/07/25 04:32:55;;;;;;;9.63;4.88;;;20.50;99.90;;;;;;5015576;28;20056;-68
2022/07/25 04:35:21;;;;;;;7.30;5.35;;;20.60;99.90;;;;;;5015304;28;20332;-69
2022/07/25 04:37:47;;;;;;;6.93;4.90;;;20.70;99.90;;;;;;5015266;28;20112;-69
2022/07/25 04:40:13;;;;;;;6.78;4.78;;;20.70;99.90;;;;;;5015036;28;20156;-69
2022/07/25 04:42:38;;;;;;;7.50;4.82;;;20.90;99.90;;;;;;5015201;28;20490;-69
2022/07/25 04:45:04;;;;;;;8.40;4.93;;;21.00;99.90;;;;;;5015034;28;20115;-69
2022/07/25 04:47:30;;;;;;;7.88;4.60;;;21.10;99.90;;;;;;5015213;28;20042;-69
2022/07/25 04:49:55;;;;;;;7.47;4.78;;;21.30;99.90;;;;;;5015232;28;20513;-69
2022/07/25 04:52:21;;;;;;;10.85;5.43;;;21.40;99.90;;;;;;4997754;28;20041;-69
2022/07/25 04:54:47;;;;;;;11.20;5.60;;;21.60;99.90;;;;;;5014861;28;20374;-69
2022/07/25 04:57:12;;;;;;;9.82;4.97;;;21.70;99.90;;;;;;5015119;28;20239;-69
2022/07/25 04:59:38;;;;;;;6.97;5.10;;;21.80;99.90;;;;;;5015032;28;20045;-69
2022/07/25 05:02:04;;;;;;;9.45;4.80;;;21.90;99.90;;;;;;5015517;28;20072;-69
2022/07/25 05:04:29;;;;;;;7.55;5.00;;;22.00;99.90;;;;;;5014971;28;20038;-69
2022/07/25 05:06:55;;;;;;;8.45;5.13;;;21.90;99.90;;;;;;5014972;28;20111;-69
2022/07/25 05:09:21;;;;;;;8.45;5.28;;;21.90;99.90;;;;;;5014633;28;20053;-69
2022/07/25 05:11:46;;;;;;;7.03;4.65;;;21.90;99.90;;;;;;5014851;28;20129;-69
2022/07/25 05:14:12;;;;;;;8.10;4.72;;;21.90;99.90;;;;;;5017999;28;20050;-69
2022/07/25 05:16:37;;;;;;;7.88;4.68;;;22.00;99.90;;;;;;5018889;28;20054;-69
2022/07/25 05:19:03;;;;;;;17.13;5.00;;;22.20;99.90;;;;;;5018856;28;20046;-69
2022/07/25 05:21:29;;;;;;;7.50;4.80;;;22.30;99.90;;;;;;5018502;28;20042;-69
2022/07/25 05:23:55;;;;;;;7.00;4.95;;;22.40;99.90;;;;;;5018734;28;20072;-69
2022/07/25 05:26:20;;;;;;;7.82;5.00;;;22.50;99.90;;;;;;5019203;28;20115;-69
2022/07/25 05:28:46;;;;;;;10.73;5.43;;;22.60;99.90;;;;;;5018512;28;20069;-70
2022/07/25 05:31:11;;;;;;;7.32;5.10;;;22.80;99.90;;;;;;5018663;28;20053;-70
2022/07/25 05:33:37;;;;;;;8.98;5.45;;;22.80;99.90;;;;;;5018456;28;20092;-69
2022/07/25 05:36:04;;;;;;;8.25;4.78;;;22.80;99.90;;;;;;5018379;28;20058;-70
2022/07/25 05:38:29;;;;;;;8.13;5.35;;;22.80;99.90;;;;;;5018461;28;20355;-69
2022/07/25 05:40:55;;;;;;;7.22;4.55;;;22.90;99.90;;;;;;5018228;28;20052;-69
2022/07/25 05:43:21;;;;;;;8.80;5.03;;;23.00;99.90;;;;;;5018938;28;20042;-70
2022/07/25 05:45:46;;;;;;;7.78;5.20;;;23.00;99.90;;;;;;5018200;28;20100;-70
2022/07/25 05:48:13;;;;;;;9.05;5.40;;;23.00;99.90;;;;;;5001026;28;20462;-69
2022/07/25 05:50:39;;;;;;;10.90;5.20;;;23.00;99.90;;;;;;5018154;28;20042;-69
2022/07/25 05:53:05;;;;;;;11.52;5.00;;;23.10;99.90;;;;;;5018139;28;20455;-69
2022/07/25 05:55:30;;;;;;;8.90;5.05;;;23.20;99.90;;;;;;5018554;28;20037;-70
2022/07/25 05:57:56;;;;;;;7.72;5.18;;;23.30;99.90;;;;;;5018081;28;20041;-70
2022/07/25 06:00:21;;;;;;;8.85;4.88;;;23.40;99.90;;;;;;5018404;28;20354;-70
2022/07/25 06:02:47;;;;;;;7.22;5.00;;;23.70;99.90;;;;;;5018594;28;20124;-70
2022/07/25 06:05:12;;;;;;;8.48;5.13;;;23.90;99.90;;;;;;5018154;28;20073;-69
2022/07/25 06:07:38;;;;;;;7.80;4.22;;;23.90;99.90;;;;;;5018396;28;20049;-70
2022/07/25 06:10:04;;;;;;;8.13;5.38;;;24.20;99.90;;;;;;5017933;28;20159;-70
2022/07/25 06:12:32;;;;;;;7.40;4.60;;;24.60;99.90;;;;;;5017781;28;20061;-70
2022/07/25 06:15:01;;;;;;;8.52;5.18;;;25.00;99.90;;;;;;5017800;28;20053;-70
2022/07/25 06:17:26;;;;;;;8.07;4.80;;;25.80;99.90;;;;;;5017725;28;20065;-70
2022/07/25 06:19:52;;;;;;;9.25;5.00;;;26.20;99.90;;;;;;5018176;28;20046;-70
2022/07/25 06:22:20;;;;;;;8.27;4.80;;;26.30;99.90;;;;;;5018222;28;20103;-70
2022/07/25 06:24:46;;;;;;;6.90;4.50;;;26.40;99.90;;;;;;5017185;28;20041;-70
2022/07/25 06:27:11;;;;;;;6.40;4.45;;;26.30;99.90;;;;;;5017640;28;20137;-70
2022/07/25 06:29:37;;;;;;;8.10;4.97;;;26.20;99.90;;;;;;5017536;28;20061;-70
2022/07/25 06:32:03;;;;;;;6.50;3.97;;;26.10;99.90;;;;;;5017474;28;20052;-69
2022/07/25 06:34:29;;;;;;;8.70;5.15;;;26.00;99.90;;;;;;5000256;28;20532;-70
2022/07/25 06:36:56;;;;;;;13.82;4.95;;;25.90;99.90;;;;;;5017343;28;20064;-70
2022/07/25 06:39:22;;;;;;;8.20;4.50;;;25.70;99.90;;;;;;5018095;28;20396;-70
2022/07/25 06:41:48;;;;;;;9.50;5.10;;;25.60;99.90;;;;;;5017639;28;20406;-70
2022/07/25 06:44:14;;;;;;;8.85;5.13;;;25.70;99.90;;;;;;5017205;28;20046;-69
2022/07/25 06:46:39;;;;;;;8.55;4.97;;;26.20;99.90;;;;;;5000077;28;20103;-70
2022/07/25 06:49:05;;;;;;;11.70;5.13;;;26.90;99.90;;;;;;5017262;28;20115;-70
2022/07/25 06:51:31;;;;;;;10.82;4.85;;;27.30;99.90;;;;;;5016993;28;20475;-69
2022/07/25 06:53:57;;;;;;;7.18;4.80;;;27.80;99.90;;;;;;5017412;28;20041;-70
2022/07/25 06:56:22;;;;;;;6.97;4.85;;;28.10;99.50;;;;;;5017233;28;20081;-70
2022/07/25 06:58:48;;;;;;;6.55;4.30;;;28.80;99.50;;;;;;5017245;28;20443;-70
2022/07/25 07:01:13;;;;;;;7.53;4.38;;;29.50;98.50;;;;;;5017274;28;20121;-70
2022/07/25 07:03:39;;;;;;;8.85;4.57;;;29.30;97.90;;;;;;5016921;28;20042;-70
2022/07/25 07:06:06;;;;;;;9.68;4.10;;;29.10;97.80;;;;;;5016838;28;20548;-70
2022/07/25 07:08:32;;;;;;;5.97;4.40;;;29.40;97.90;;;;;;5016723;28;20092;-70
2022/07/25 07:10:58;;;;;;;8.00;4.68;;;30.50;97.90;;;;;;5017105;28;20038;-70
2022/07/25 07:13:24;;;;;;;9.23;4.53;;;31.10;96.40;;;;;;5016618;28;20509;-71
2022/07/25 07:15:50;;;;;;;7.80;4.28;;;30.90;96.10;;;;;;5017235;28;20092;-70
2022/07/25 07:18:17;;;;;;;8.00;5.00;;;30.90;95.90;;;;;;5016607;28;20056;-70
2022/07/25 07:20:43;;;;;;;5.93;3.95;;;30.30;95.80;;;;;;5016379;28;20038;-70
2022/07/25 07:23:09;;;;;;;7.60;5.15;;;29.90;95.70;;;;;;5016563;28;20056;-70
2022/07/25 07:25:35;;;;;;;9.57;4.90;;;29.30;96.20;;;;;;5016545;28;20081;-71
2022/07/25 07:28:01;;;;;;;6.53;4.03;;;28.90;96.50;;;;;;5016159;28;20081;-70
2022/07/25 07:30:27;;;;;;;9.57;4.85;;;28.60;96.80;;;;;;5017132;28;20080;-70
2022/07/25 07:32:52;;;;;;;7.95;4.95;;;28.40;96.90;;;;;;5016172;28;20049;-70
2022/07/25 07:35:18;;;;;;;8.15;4.95;;;28.10;97.20;;;;;;5016775;28;20134;-71
2022/07/25 07:37:45;;;;;;;8.13;5.03;;;27.90;97.30;;;;;;5016048;28;20450;-70
2022/07/25 07:40:14;;;;;;;6.47;4.35;;;27.60;97.60;;;;;;5016640;28;20103;-70
2022/07/25 07:42:46;;;;;;;6.80;4.72;;;27.50;97.80;;;;;;5016425;28;20439;-70
2022/07/25 07:45:17;;;;;;;10.07;4.88;;;27.40;98.50;;;;;;5015986;28;20121;-70
2022/07/25 07:47:46;;;;;;;8.15;4.60;;;27.40;98.40;;;;;;5016106;28;20077;-69
2022/07/25 07:50:12;;;;;;;8.70;4.68;;;27.50;98.60;;;;;;5016059;28;20053;-70
2022/07/25 07:52:38;;;;;;;9.30;5.43;;;27.50;98.50;;;;;;5016179;28;20111;-70
2022/07/25 07:57:48;;;;;;;8.00;4.93;;;27.40;98.70;;;;;;5015850;28;20538;-70
2022/07/25 08:00:15;;;;;;;10.20;4.82;;;27.80;99.00;;;;;;5015876;28;20125;-70
2022/07/25 08:02:50;;;;;;;6.85;4.68;;;28.00;98.70;;;;;;5016309;28;20050;-70
2022/07/25 08:05:28;;;;;;;9.30;4.93;;;27.90;98.50;;;;;;5015812;28;20077;-70
2022/07/25 08:07:54;;;;;;;6.43;4.43;;;27.90;98.30;;;;;;5015812;28;20104;-70
2022/07/25 08:10:22;;;;;;;9.60;5.03;;;27.90;98.60;;;;;;5015738;28;20060;-70
2022/07/25 08:12:48;;;;;;;6.65;4.57;;;27.70;98.30;;;;;;5015579;28;20095;-70
2022/07/25 08:15:14;;;;;;;10.10;4.82;;;27.70;98.50;;;;;;4998869;28;20111;-70
2022/07/25 08:17:40;;;;;;;7.45;4.57;;;27.50;98.40;;;;;;5015977;28;20060;-70
2022/07/25 08:20:07;;;;;;;6.93;4.20;;;27.50;98.70;;;;;;5015596;28;20053;-69
2022/07/25 08:22:37;;;;;;;9.68;4.53;;;27.40;98.90;;;;;;5015565;28;20120;-70
2022/07/25 08:25:04;;;;;;;6.30;4.10;;;27.20;98.80;;;;;;5015500;28;20061;-70
2022/07/25 08:27:29;;;;;;;8.63;4.53;;;27.00;99.00;;;;;;5015370;28;20081;-70
2022/07/25 08:29:57;;;;;;;7.10;4.03;;;26.80;99.10;;;;;;5016207;28;20166;-69
2022/07/25 08:32:23;;;;;;;7.43;4.07;;;26.80;99.00;;;;;;5015073;28;20463;-69
2022/07/25 08:34:48;;;;;;;6.85;3.97;;;26.80;98.90;;;;;;5015375;28;20053;-70
2022/07/25 08:37:14;;;;;;;6.82;3.38;;;26.80;99.20;;;;;;5015315;28;20127;-70
2022/07/25 08:39:40;;;;;;;8.68;3.72;;;27.00;99.40;;;;;;5015303;28;20103;-70
2022/07/25 08:42:07;;;;;;;6.15;3.45;;;27.20;99.60;;;;;;5015753;28;20402;-70
2022/07/25 08:44:39;;;;;;;7.95;4.22;;;27.40;99.40;;;;;;5015061;28;20119;-70
2022/07/25 08:47:06;;;;;;;6.10;3.17;;;27.40;99.10;;;;;;5015097;28;20061;-69
2022/07/25 08:49:34;;;;;;;8.68;3.17;;;27.40;99.20;;;;;;4997672;28;20046;-70
2022/07/25 08:52:01;;;;;;;6.20;3.05;;;27.10;98.50;;;;;;5015097;28;20037;-70
2022/07/25 08:54:26;;;;;;;5.82;3.55;;;26.90;98.40;;;;;;5015019;28;20049;-71
2022/07/25 08:56:52;;;;;;;5.53;3.13;;;26.60;98.40;;;;;;5015055;28;20053;-70
2022/07/25 08:59:18;;;;;;;8.27;2.90;;;26.40;98.70;;;;;;5015580;28;20382;-70
2022/07/25 09:01:43;;;;;;;5.63;2.95;;;26.40;99.30;;;;;;5015005;28;20410;-70
2022/07/25 09:04:09;;;;;;;8.90;3.65;;;26.10;99.40;;;;;;5015231;28;20160;-70
2022/07/25 09:06:35;;;;;;;6.72;2.85;;;26.10;99.90;;;;;;5014993;28;20092;-70
2022/07/25 09:09:03;;;;;;;5.57;3.25;;;26.00;99.90;;;;;;5015156;28;20065;-69
2022/07/25 09:11:32;;;;;;;4.53;2.90;;;25.90;99.90;;;;;;5014690;28;20466;-70
2022/07/25 09:14:00;;;;;;;5.00;2.85;;;25.90;99.90;;;;;;5014655;28;20451;-70
2022/07/25 09:16:30;;;;;;;5.88;3.00;;;25.90;99.90;;;;;;5014981;28;20100;-70
2022/07/25 09:19:11;;;;;;;4.80;2.83;;;25.90;99.90;;;;;;5015207;28;20081;-70
2022/07/25 09:21:38;;;;;;;6.32;2.97;;;26.00;99.90;;;;;;5014737;28;20513;-70
2022/07/25 09:24:22;;;;;;;6.53;2.90;;;26.10;99.90;;;;;;5014842;28;20134;-69
2022/07/25 09:26:53;;;;;;;6.78;2.80;;;26.30;99.90;;;;;;5014981;28;20340;-70
2022/07/25 09:29:32;;;;;;;7.40;2.85;;;26.40;99.90;;;;;;5014653;28;20049;-69
2022/07/25 09:32:00;;;;;;;4.38;1.92;;;26.80;99.90;;;;;;5015199;28;20050;-70
2022/07/25 09:34:37;;;;;;;3.08;1.50;;;26.90;98.30;;;;;;5015128;28;20053;-70
2022/07/25 09:37:11;;;;;;;4.22;1.40;;;26.90;97.00;;;;;;4997992;28;20116;-70
2022/07/25 09:39:49;;;;;;;3.55;1.33;;;26.80;97.00;;;;;;5014716;28;20374;-70
2022/07/25 09:42:24;;;;;;;4.68;1.60;;;26.80;96.10;;;;;;5014753;28;20033;-70
2022/07/25 09:45:11;;;;;;;3.10;1.33;;;26.80;96.90;;;;;;5015038;28;20054;-70
2022/07/25 09:47:50;;;;;;;3.58;1.27;;;27.00;97.70;;;;;;5014642;28;20046;-70
2022/07/25 09:50:17;;;;;;;2.53;1.42;;;27.30;97.50;;;;;;5014807;28;20366;-70
2022/07/25 09:52:44;;;;;;;2.88;1.40;;;27.60;96.90;;;;;;5014463;28;20478;-70
2022/07/25 09:55:12;;;;;;;3.55;1.20;;;28.00;97.20;;;;;;5014596;28;20042;-70
2022/07/25 09:57:39;;;;;;;3.25;1.52;;;28.50;96.60;;;;;;5014447;28;20482;-70
2022/07/25 10:00:06;;;;;;;2.28;1.38;;;28.80;95.80;;;;;;5015379;28;20038;-70
2022/07/25 10:02:47;;;;;;;2.50;1.20;;;28.70;95.70;;;;;;5018117;28;20052;-70
2022/07/25 10:05:50;;;;;;;2.33;1.00;;;28.50;95.30;;;;;;5017936;28;20076;-70
2022/07/25 10:08:17;;;;;;;1.70;1.00;;;28.50;95.40;;;;;;5017812;28;20459;-70
2022/07/25 10:10:43;;;;;;;2.65;1.10;;;28.50;94.80;;;;;;5017934;28;20046;-70
2022/07/25 10:13:27;;;;;;;2.33;1.08;;;28.60;95.50;;;;;;5017862;28;20056;-70
2022/07/25 10:15:52;;;;;;;2.58;1.20;;;28.70;95.60;;;;;;5018286;28;20084;-70
2022/07/25 10:18:21;;;;;;;3.25;1.10;;;28.80;95.60;;;;;;5017739;28;20119;-70
2022/07/25 10:20:51;;;;;;;2.78;1.23;;;29.00;95.40;;;;;;5017698;28;20128;-70
2022/07/25 10:23:17;;;;;;;2.42;1.10;;;29.10;95.60;;;;;;5017753;28;20042;-70
2022/07/25 10:25:43;;;;;;;2.97;1.10;;;29.20;95.60;;;;;;5018036;28;20355;-70
2022/07/25 10:28:09;;;;;;;3.13;1.30;;;29.10;94.90;;;;;;5017527;28;20459;-70
2022/07/25 10:30:39;;;;;;;1.98;0.90;;;29.40;95.50;;;;;;5017996;28;20058;-70
2022/07/25 10:33:16;;;;;;;7.88;1.52;;;29.40;95.10;;;;;;5017330;28;20046;-70
2022/07/25 10:35:43;;;;;;;1.45;0.90;;;29.10;94.70;;;;;;5000552;28;20048;-70
2022/07/25 10:38:09;;;;;;;1.08;0.80;;;28.60;94.60;;;;;;5017874;28;20081;-70
2022/07/25 10:40:42;;;;;;;2.10;0.80;;;28.50;95.20;;;;;;4999450;28;20089;-70
2022/07/25 10:43:11;;;;;;;1.60;0.90;;;28.40;95.40;;;;;;5017281;28;20133;-70
2022/07/25 10:45:38;;;;;;;1.50;0.80;;;28.50;96.20;;;;;;5017254;28;20100;-70
2022/07/25 10:48:18;;;;;;;1.00;0.70;;;28.70;96.30;;;;;;5017291;28;20115;-70
2022/07/25 10:50:57;;;;;;;6.10;1.00;;;28.90;96.70;;;;;;5017492;28;20124;-70
2022/07/25 10:53:43;;;;;;;2.60;1.00;;;28.80;96.20;;;;;;5017063;28;20048;-70
2022/07/25 10:56:11;;;;;;;3.53;0.70;;;28.90;96.50;;;;;;5017321;28;20057;-70
2022/07/25 10:58:50;;;;;;;2.05;0.70;;;28.70;96.40;;;;;;5016954;28;20050;-70
2022/07/25 11:01:23;;;;;;;2.63;0.82;;;28.30;96.20;;;;;;5017187;28;20049;-70
2022/07/25 11:03:50;;;;;;;2.13;0.90;;;27.60;97.20;;;;;;5017342;28;20046;-70
2022/07/25 11:06:35;;;;;;;5.90;1.25;;;27.30;98.90;;;;;;5016757;28;20144;-70
2022/07/25 11:09:17;;;;;;;3.30;0.90;;;26.90;99.90;;;;;;5016643;28;20124;-70
2022/07/25 11:11:48;;;;;;;4.03;0.85;;;26.50;99.90;;;;;;5016682;28;20355;-70
2022/07/25 11:14:17;;;;;;;6.05;0.85;;;26.30;99.90;;;;;;5016774;28;20406;-69
2022/07/25 11:16:44;;;;;;;4.30;1.58;;;26.30;99.90;;;;;;5017428;28;20421;-70
2022/07/25 11:19:36;;;;;;;4.70;1.42;;;26.30;99.90;;;;;;4999721;28;20466;-69
2022/07/25 11:22:04;;;;;;;2.20;1.15;;;26.40;99.90;;;;;;5011763;28;20378;-70
2022/07/25 11:24:41;;;;;;;3.78;1.20;;;26.50;99.90;;;;;;5016601;28;20033;-70
2022/07/25 11:27:08;;;;;;;3.60;1.20;;;26.60;99.90;;;;;;5016308;28;20477;-70
2022/07/25 11:29:36;;;;;;;2.88;1.10;;;26.80;99.90;;;;;;5016212;28;20128;-71
2022/07/25 11:32:05;;;;;;;3.35;1.10;;;26.80;99.90;;;;;;5017349;28;20076;-69
2022/07/25 11:34:40;;;;;;;3.22;1.40;;;26.80;99.90;;;;;;5016449;28;20092;-70
2022/07/25 11:37:08;;;;;;;4.05;1.40;;;26.80;99.90;;;;;;5016803;28;20037;-69
2022/07/25 11:39:36;;;;;;;3.63;1.08;;;26.70;99.90;;;;;;5016559;28;20073;-69
2022/07/25 11:42:05;;;;;;;4.38;1.70;;;26.50;99.90;;;;;;5016432;28;20161;-70
2022/07/25 11:44:36;;;;;;;7.00;1.40;;;26.60;99.90;;;;;;5016539;28;20132;-70
2022/07/25 11:47:04;;;;;;;3.72;1.20;;;26.60;99.90;;;;;;4999208;28;20050;-70
2022/07/25 11:49:30;;;;;;;4.25;1.38;;;26.80;99.90;;;;;;5016310;28;20108;-69
2022/07/25 11:51:55;;;;;;;6.63;1.52;;;26.90;99.90;;;;;;5015723;28;20046;-70
2022/07/25 11:54:21;;;;;;;7.38;1.60;;;27.10;99.80;;;;;;5015895;28;20054;-69
2022/07/25 11:56:47;;;;;;;3.55;1.20;;;27.30;99.40;;;;;;5016149;28;20042;-70
2022/07/25 11:59:12;;;;;;;4.35;1.25;;;27.50;99.40;;;;;;5016062;28;20466;-69
2022/07/25 12:01:40;;;;;;;3.38;1.20;;;27.70;98.70;;;;;;5016453;28;20347;-70
2022/07/25 12:04:15;;;;;;;5.28;1.45;;;27.60;97.70;;;;;;5015894;28;20053;-70
2022/07/25 12:06:43;;;;;;;4.68;1.55;;;27.80;98.80;;;;;;5015806;28;20053;-69
2022/07/25 12:09:17;;;;;;;5.30;1.70;;;27.80;98.30;;;;;;5015742;28;20064;-70
2022/07/25 12:11:43;;;;;;;4.60;1.48;;;27.60;98.00;;;;;;5015949;28;20053;-70
2022/07/25 12:14:11;;;;;;;8.80;1.90;;;27.40;98.10;;;;;;5015505;28;20132;-70
2022/07/25 12:16:37;;;;;;;3.63;1.40;;;27.20;98.10;;;;;;5015677;28;20045;-70
2022/07/25 12:19:07;;;;;;;5.15;1.20;;;27.10;98.30;;;;;;5015555;28;20497;-71
2022/07/25 12:21:33;;;;;;;5.30;1.90;;;27.20;98.50;;;;;;5015454;28;20077;-70
2022/07/25 12:23:58;;;;;;;5.13;1.10;;;27.30;98.30;;;;;;5015334;28;20143;-70
2022/07/25 12:26:24;;;;;;;5.20;1.25;;;27.50;98.50;;;;;;5015537;28;20430;-70
2022/07/25 12:28:50;;;;;;;5.93;1.77;;;27.70;98.20;;;;;;5015573;28;20367;-71
2022/07/25 12:31:15;;;;;;;6.15;1.35;;;28.10;98.00;;;;;;5015971;28;20041;-70
2022/07/25 12:33:41;;;;;;;6.22;1.15;;;28.30;97.40;;;;;;5015141;28;20037;-70
2022/07/25 12:36:10;;;;;;;5.05;1.02;;;28.40;97.20;;;;;;5015780;28;20046;-70
2022/07/25 12:38:36;;;;;;;3.80;1.00;;;28.40;96.70;;;;;;5015562;28;20050;-69
2022/07/25 12:41:01;;;;;;;6.07;1.10;;;28.20;96.00;;;;;;5015220;28;20466;-70
2022/07/25 12:43:27;;;;;;;2.95;1.00;;;28.10;96.90;;;;;;5015155;28;20049;-70
2022/07/25 12:45:52;;;;;;;6.45;1.77;;;28.30;96.10;;;;;;5015055;28;20344;-71
2022/07/25 12:48:18;;;;;;;4.60;1.02;;;28.10;96.00;;;;;;5015616;28;20092;-70
2022/07/25 12:50:44;;;;;;;7.00;0.90;;;28.00;95.70;;;;;;5015169;28;20050;-70